Time;durP1;ratioP1;P1;durP2;ratioP2;P2;SDS_P1;SDS_P2;PMS_P1;PMS_P2;Temp;Humidity;BMP_temperature;BMP_pressure;BME280_temperature;BME280_humidity;BME280_pressure;Samples;Min_cycle;Max_cycle;Signal;HPM_P1;HPM_P2
2021/09/12 05:24:31;;;;;;;3.97;3.55;;;;;;;11.99;73.68;99161.44;2621235;46;20064;-65
2021/09/12 05:27:00;;;;;;;4.10;3.72;;;;;;;12.07;73.77;99161.28;2620486;54;20039;-65
2021/09/12 05:29:30;;;;;;;4.07;3.67;;;;;;;12.03;73.49;99160.84;2620243;54;20023;-65
2021/09/12 05:32:00;;;;;;;5.70;3.88;;;;;;;11.94;73.62;99169.13;2620500;54;20035;-65
2021/09/12 05:34:30;;;;;;;3.63;3.33;;;;;;;11.91;74.17;99157.09;2618273;54;20031;-65
2021/09/12 05:36:59;;;;;;;3.72;3.42;;;;;;;11.95;74.10;99166.28;2619269;54;20042;-65
2021/09/12 05:39:32;;;;;;;3.70;3.40;;;;;;;12.00;74.01;99169.22;2618894;54;20576;-65
2021/09/12 05:42:03;;;;;;;4.57;3.58;;;;;;;12.01;73.56;99170.84;2618452;54;20078;-65
2021/09/12 05:44:33;;;;;;;4.22;3.38;;;;;;;12.03;73.90;99171.44;2618527;54;20038;-64
2021/09/12 05:47:03;;;;;;;4.25;3.85;;;;;;;12.09;74.06;99173.34;2619518;47;20051;-65
2021/09/12 05:49:33;;;;;;;3.60;3.30;;;;;;;12.10;73.59;99174.97;2619680;47;20026;-65
2021/09/12 05:52:02;;;;;;;4.10;3.42;;;;;;;12.21;73.61;99178.94;2620460;54;20545;-65
2021/09/12 05:54:38;;;;;;;5.00;4.50;;;;;;;12.26;72.85;99176.50;2618028;54;20027;-65
2021/09/12 05:57:07;;;;;;;4.43;4.03;;;;;;;12.19;73.15;99180.13;2618407;47;20034;-65
2021/09/12 05:59:37;;;;;;;8.77;3.85;;;;;;;12.25;73.78;99176.72;2619015;54;20042;-65
2021/09/12 06:02:07;;;;;;;6.80;4.15;;;;;;;12.42;73.14;99182.53;2620861;54;20033;-65
2021/09/12 06:04:37;;;;;;;6.88;4.43;;;;;;;12.57;73.04;99191.16;2621641;54;20625;-65
2021/09/12 06:07:07;;;;;;;4.32;3.92;;;;;;;12.62;72.69;99189.56;2621105;54;20030;-65
2021/09/12 06:09:39;;;;;;;4.55;3.90;;;;;;;12.69;72.25;99194.88;2618830;54;20033;-65
2021/09/12 06:12:10;;;;;;;4.38;3.55;;;;;;;12.58;72.16;99195.47;2619517;39;20437;-65
2021/09/12 06:14:40;;;;;;;4.45;3.60;;;;;;;12.59;72.45;99194.44;2618313;54;20038;-65
2021/09/12 06:17:10;;;;;;;4.13;3.72;;;;;;;12.70;72.46;99193.91;2617814;54;20031;-65
2021/09/12 06:19:43;;;;;;;4.43;4.03;;;;;;;12.88;72.07;99186.22;2618526;54;20028;-65
2021/09/12 06:22:13;;;;;;;4.18;3.80;;;;;;;13.02;72.21;99192.41;2618690;54;20037;-64
2021/09/12 06:24:46;;;;;;;5.93;4.60;;;;;;;13.14;71.75;99189.97;2618314;54;20030;-65
2021/09/12 06:27:16;;;;;;;5.10;4.40;;;;;;;13.21;71.32;99185.50;2619052;39;20426;-65
2021/09/12 06:29:45;;;;;;;4.18;3.83;;;;;;;13.19;71.27;99190.22;2618674;54;20572;-65
2021/09/12 06:32:15;;;;;;;5.45;4.85;;;;;;;13.26;71.16;99188.41;2618626;54;20030;-65
2021/09/12 06:34:45;;;;;;;5.20;4.53;;;;;;;13.24;70.85;99186.97;2618288;54;20031;-64
2021/09/12 06:37:14;;;;;;;4.55;4.15;;;;;;;13.20;71.32;99191.84;2619122;39;20651;-65
2021/09/12 06:39:47;;;;;;;5.25;4.13;;;;;;;13.18;71.32;99190.38;2618504;54;20061;-64
2021/09/12 06:42:16;;;;;;;6.38;4.60;;;;;;;13.14;71.64;99189.97;2618634;54;20034;-65
2021/09/12 06:44:46;;;;;;;5.05;4.43;;;;;;;13.08;71.49;99190.78;2618199;54;20023;-65
2021/09/12 06:47:16;;;;;;;5.28;4.05;;;;;;;13.11;71.65;99196.50;2618376;54;20027;-64
2021/09/12 06:49:45;;;;;;;5.03;4.38;;;;;;;13.25;72.04;99189.44;2618534;54;20037;-64
2021/09/12 06:52:15;;;;;;;4.63;4.22;;;;;;;13.43;71.67;99188.03;2618027;47;20034;-64
2021/09/12 06:54:47;;;;;;;4.55;4.15;;;;;;;13.63;71.13;99186.22;2617937;54;20030;-65
2021/09/12 06:57:17;;;;;;;4.95;4.45;;;;;;;13.76;70.77;99186.25;2618682;54;20550;-66
2021/09/12 06:59:46;;;;;;;5.15;4.65;;;;;;;13.93;70.66;99177.88;2617814;47;20074;-67
2021/09/12 07:02:16;;;;;;;6.45;4.95;;;;;;;14.08;70.60;99181.13;2617740;47;20030;-67
2021/09/12 07:04:46;;;;;;;4.65;4.20;;;;;;;14.22;69.89;99184.59;2618341;54;20031;-65
2021/09/12 07:07:16;;;;;;;6.30;5.03;;;;;;;14.27;69.74;99190.91;2618780;54;20033;-64
2021/09/12 07:09:49;;;;;;;4.95;4.47;;;;;;;14.35;69.25;99188.03;2618489;54;20045;-64
2021/09/12 07:12:19;;;;;;;6.18;4.82;;;;;;;14.42;68.92;99190.69;2619338;39;20461;-65
2021/09/12 07:14:49;;;;;;;5.32;4.82;;;;;;;14.46;68.53;99183.94;2618836;54;20025;-65
2021/09/12 07:17:18;;;;;;;4.57;4.00;;;;;;;14.51;68.59;99191.31;2618497;54;20291;-64
2021/09/12 07:19:48;;;;;;;6.07;4.82;;;;;;;14.68;68.71;99187.19;2618688;54;20026;-64
2021/09/12 07:22:18;;;;;;;4.70;4.22;;;;;;;14.85;68.60;99188.34;2618835;54;20034;-64
2021/09/12 07:24:50;;;;;;;6.38;5.00;;;;;;;14.98;67.95;99194.63;2617841;54;20577;-64
2021/09/12 07:27:20;;;;;;;5.80;4.88;;;;;;;15.14;68.23;99196.81;2618681;54;20042;-65
2021/09/12 07:30:00;;;;;;;7.70;4.75;;;;;;;15.38;67.03;99192.59;2618783;54;20030;-65
2021/09/12 07:32:30;;;;;;;5.47;4.97;;;;;;;15.49;67.98;99199.09;2618562;54;20593;-64
2021/09/12 07:35:00;;;;;;;5.75;5.25;;;;;;;15.63;67.58;99187.31;2618826;54;20027;-65
2021/09/12 07:37:30;;;;;;;6.95;5.53;;;;;;;15.79;67.65;99189.47;2618423;47;20023;-65
2021/09/12 07:40:02;;;;;;;8.55;5.72;;;;;;;15.98;67.12;99186.88;2618917;54;20081;-65
2021/09/12 07:42:32;;;;;;;8.35;5.28;;;;;;;16.07;66.94;99190.88;2618640;54;20027;-64
2021/09/12 07:45:02;;;;;;;8.05;6.40;;;;;;;16.35;66.67;99190.44;2618634;54;20031;-64
2021/09/12 07:47:33;;;;;;;5.20;4.70;;;;;;;16.48;65.89;99190.28;2618990;54;20543;-65
2021/09/12 07:50:03;;;;;;;6.03;5.18;;;;;;;16.41;65.86;99186.06;2619298;54;20075;-64
2021/09/12 07:52:33;;;;;;;6.47;5.88;;;;;;;16.49;66.15;99193.75;2619318;54;20034;-64
2021/09/12 07:55:05;;;;;;;8.93;7.07;;;;;;;16.60;66.52;99191.19;2619516;54;20564;-65
2021/09/12 07:57:35;;;;;;;6.60;6.00;;;;;;;16.74;66.13;99194.56;2619527;54;20039;-65
2021/09/12 08:00:06;;;;;;;7.13;6.25;;;;;;;16.98;65.99;99198.19;2619363;54;20019;-65
2021/09/12 08:02:40;;;;;;;8.48;6.85;;;;;;;17.08;66.00;99194.97;2619021;54;20069;-65
2021/09/12 08:05:12;;;;;;;8.63;6.32;;;;;;;17.10;65.43;99195.56;2621288;54;20065;-65
2021/09/12 08:07:41;;;;;;;6.05;5.45;;;;;;;17.21;65.85;99191.31;2622143;54;20049;-65
2021/09/12 08:10:14;;;;;;;7.32;5.65;;;;;;;17.41;65.21;99181.16;2619141;54;20019;-65
2021/09/12 08:12:44;;;;;;;6.07;5.38;;;;;;;17.44;65.07;99186.06;2619295;54;20122;-63
2021/09/12 08:15:14;;;;;;;7.00;6.22;;;;;;;17.61;64.40;99183.56;2620093;54;20577;-64
2021/09/12 08:17:45;;;;;;;7.70;5.65;;;;;;;17.76;64.48;99183.16;2620379;39;20461;-65
2021/09/12 08:20:15;;;;;;;6.47;5.88;;;;;;;17.92;64.06;99187.00;2619383;54;20038;-65
2021/09/12 08:22:45;;;;;;;7.88;6.28;;;;;;;18.02;63.97;99192.59;2618894;54;20073;-65
2021/09/12 08:25:17;;;;;;;6.45;5.70;;;;;;;18.03;63.07;99194.22;2619265;54;20518;-64
2021/09/12 08:27:47;;;;;;;9.20;7.22;;;;;;;18.03;64.21;99189.69;2619094;54;20026;-64
2021/09/12 08:30:17;;;;;;;5.45;4.95;;;;;;;18.08;63.87;99183.63;2619230;54;20042;-64
2021/09/12 08:32:46;;;;;;;6.10;5.50;;;;;;;18.12;62.99;99187.47;2618790;54;20042;-65
2021/09/12 08:35:17;;;;;;;6.82;5.22;;;;;;;17.92;62.95;99195.00;2619686;39;20418;-64
2021/09/12 08:37:47;;;;;;;6.00;5.40;;;;;;;17.92;63.24;99198.53;2619091;54;20038;-65
2021/09/12 08:40:19;;;;;;;6.22;5.15;;;;;;;17.95;63.68;99191.88;2618608;47;20564;-65
2021/09/12 08:42:49;;;;;;;5.60;4.72;;;;;;;17.95;63.27;99190.03;2618529;54;20039;-65
2021/09/12 08:45:19;;;;;;;8.18;5.07;;;;;;;18.07;63.51;99198.88;2618974;54;20026;-64
2021/09/12 08:47:49;;;;;;;6.55;4.63;;;;;;;18.21;63.01;99196.00;2618757;54;20038;-65
2021/09/12 08:50:19;;;;;;;5.05;4.50;;;;;;;18.36;62.77;99196.31;2618984;54;20042;-68
2021/09/12 08:52:49;;;;;;;5.65;3.90;;;;;;;18.59;62.23;99192.81;2618578;54;20034;-66
2021/09/12 08:55:22;;;;;;;4.07;3.67;;;;;;;18.74;61.70;99182.47;2619529;39;20448;-65
2021/09/12 08:57:53;;;;;;;6.32;3.95;;;;;;;18.78;61.59;99182.81;2618942;54;20034;-65
2021/09/12 09:00:25;;;;;;;4.18;3.78;;;;;;;18.94;61.20;99183.91;2619188;54;20033;-66
2021/09/12 09:03:00;;;;;;;4.00;2.75;;;;;;;19.02;60.50;99181.69;2618863;54;20042;-65
2021/09/12 09:05:33;;;;;;;4.35;2.90;;;;;;;19.09;60.33;99186.91;2618657;47;20023;-65
2021/09/12 09:08:10;;;;;;;3.78;2.78;;;;;;;19.13;59.87;99181.88;2619870;54;20121;-65
2021/09/12 09:10:48;;;;;;;5.35;3.67;;;;;;;19.16;59.67;99182.22;2620680;54;20142;-66
2021/09/12 09:13:29;;;;;;;2.60;2.40;;;;;;;19.23;58.60;99179.41;2619851;54;20042;-65
2021/09/12 09:16:00;;;;;;;4.93;3.13;;;;;;;19.34;58.17;99188.44;2619615;54;20031;-66
2021/09/12 09:18:37;;;;;;;3.38;2.47;;;;;;;19.48;57.49;99177.19;2618985;54;20286;-66
2021/09/12 09:21:26;;;;;;;2.90;2.38;;;;;;;19.62;56.32;99179.56;2619278;54;20030;-66
2021/09/12 09:24:15;;;;;;;6.07;4.63;;;;;;;19.79;56.81;99175.84;2618337;54;20059;-65
2021/09/12 09:26:49;;;;;;;3.50;2.70;;;;;;;20.00;56.83;99181.53;2619432;54;20046;-64
2021/09/12 09:29:25;;;;;;;3.55;2.70;;;;;;;20.21;56.67;99172.75;2619349;54;20034;-64
2021/09/12 09:32:07;;;;;;;4.38;3.42;;;;;;;20.38;55.79;99175.41;2618665;54;20031;-64
2021/09/12 09:34:37;;;;;;;4.45;3.83;;;;;;;20.39;55.89;99171.66;2621420;54;20069;-64
2021/09/12 09:37:12;;;;;;;3.53;2.70;;;;;;;20.53;55.10;99170.28;2623115;54;20027;-65
2021/09/12 09:39:47;;;;;;;3.25;2.17;;;;;;;20.54;55.08;99171.09;2621017;54;20026;-65
2021/09/12 09:42:35;;;;;;;3.38;2.85;;;;;;;20.60;54.56;99171.97;2619680;46;20057;-65
2021/09/12 09:45:07;;;;;;;3.17;2.70;;;;;;;20.63;54.03;99166.91;2619019;54;20040;-65
2021/09/12 09:47:38;;;;;;;2.78;2.55;;;;;;;20.69;53.32;99170.47;2620354;46;20034;-66
2021/09/12 09:50:12;;;;;;;2.28;2.08;;;;;;;20.76;53.35;99171.91;2620032;47;20545;-65
2021/09/12 09:52:42;;;;;;;4.00;2.33;;;;;;;20.81;53.21;99168.47;2620125;39;20539;-65
2021/09/12 09:55:14;;;;;;;3.22;2.83;;;;;;;20.87;53.56;99172.84;2618944;54;20034;-64
2021/09/12 09:57:49;;;;;;;4.80;2.97;;;;;;;20.94;53.24;99172.63;2619091;48;20030;-65
2021/09/12 10:00:19;;;;;;;2.80;2.08;;;;;;;21.04;52.90;99167.38;2618941;54;20042;-65
2021/09/12 10:02:50;;;;;;;2.67;1.73;;;;;;;21.13;51.86;99160.50;2618589;54;20046;-64
2021/09/12 10:05:21;;;;;;;2.58;2.03;;;;;;;21.21;51.24;99160.03;2618257;54;20625;-64
2021/09/12 10:07:50;;;;;;;2.35;2.15;;;;;;;21.26;51.12;99153.91;2619087;54;20027;-65
2021/09/12 10:10:22;;;;;;;3.20;2.90;;;;;;;21.31;50.65;99150.44;2618999;54;20034;-64
2021/09/12 10:12:58;;;;;;;2.85;2.08;;;;;;;21.23;49.72;99155.25;2618402;54;20038;-65
2021/09/12 10:15:30;;;;;;;2.42;1.92;;;;;;;21.23;50.13;99149.88;2620130;39;20455;-65
2021/09/12 10:18:01;;;;;;;2.45;1.92;;;;;;;21.37;50.34;99146.78;2619064;54;20060;-63
2021/09/12 10:20:33;;;;;;;2.38;2.17;;;;;;;21.44;49.22;99145.50;2618826;54;20022;-64
2021/09/12 10:23:06;;;;;;;2.25;1.80;;;;;;;21.44;49.13;99144.72;2618459;54;20026;-64
2021/09/12 10:25:55;;;;;;;3.37;2.63;;;;;;;21.45;49.19;99140.94;2619340;54;20035;-64
2021/09/12 10:28:33;;;;;;;2.17;1.98;;;;;;;21.49;48.62;99142.88;2619208;47;20034;-64
2021/09/12 10:31:24;;;;;;;2.17;1.83;;;;;;;21.80;48.19;99131.53;2619757;51;20030;-64
2021/09/12 10:34:09;;;;;;;3.08;1.80;;;;;;;22.04;46.80;99134.66;2618561;54;20038;-64
2021/09/12 10:36:42;;;;;;;2.47;2.20;;;;;;;22.12;44.98;99126.09;2619198;54;20030;-64
2021/09/12 10:39:28;;;;;;;3.33;2.20;;;;;;;22.14;45.64;99119.44;2619269;54;20034;-64
2021/09/12 10:42:25;;;;;;;2.03;1.83;;;;;;;22.33;45.42;99111.72;2618981;54;20030;-64
2021/09/12 10:45:25;;;;;;;3.60;2.55;;;;;;;22.34;44.67;99117.94;2617909;54;20042;-64
2021/09/12 10:48:22;;;;;;;2.47;1.60;;;;;;;22.31;44.07;99119.25;2618908;54;20039;-64
2021/09/12 10:50:53;;;;;;;1.52;1.40;;;;;;;22.34;44.09;99115.22;2618658;54;20026;-65
2021/09/12 10:54:08;;;;;;;2.63;1.58;;;;;;;22.21;44.38;99116.53;2618578;54;20065;-64
2021/09/12 10:56:39;;;;;;;2.25;1.58;;;;;;;22.26;43.87;99119.22;2618337;54;20560;-65
2021/09/12 10:59:15;;;;;;;2.22;1.50;;;;;;;22.40;44.15;99114.97;2619002;54;20038;-64
2021/09/12 11:01:49;;;;;;;1.55;1.38;;;;;;;22.40;43.46;99116.88;2619249;39;20402;-63
2021/09/12 11:04:28;;;;;;;4.82;3.97;;;;;;;22.46;43.32;99107.75;2618345;54;20038;-63
2021/09/12 11:07:04;;;;;;;2.20;1.92;;;;;;;22.63;42.91;99099.47;2618526;54;20042;-65
2021/09/12 11:09:35;;;;;;;3.85;2.50;;;;;;;22.71;43.01;99101.66;2619309;39;20411;-64
2021/09/12 11:12:06;;;;;;;2.65;1.50;;;;;;;22.76;42.74;99112.44;2618844;54;20030;-64
2021/09/12 11:14:39;;;;;;;2.00;1.80;;;;;;;22.80;42.88;99102.75;2618486;54;20035;-63
2021/09/12 11:17:13;;;;;;;3.25;2.15;;;;;;;22.84;42.84;99101.13;2618763;54;20026;-65
2021/09/12 11:19:54;;;;;;;2.53;2.33;;;;;;;22.93;42.54;99096.88;2619249;54;20033;-64
2021/09/12 11:25:03;;;;;;;2.15;1.90;;;;;;;23.02;42.69;99099.84;2618751;54;20045;-70
2021/09/12 11:27:40;;;;;;;2.50;2.30;;;;;;;23.10;42.17;99096.63;2619041;54;20672;-69
2021/09/12 17:25:21;;;;;;;5.35;4.43;;;;;;;21.54;47.22;98918.03;2620292;46;20424;-63
2021/09/12 17:27:54;;;;;;;3.92;3.30;;;;;;;21.46;47.58;98916.66;2618877;47;20129;-64
2021/09/12 17:30:26;;;;;;;4.18;3.63;;;;;;;21.40;47.68;98917.72;2619168;39;20454;-65
2021/09/12 17:32:56;;;;;;;4.18;3.65;;;;;;;21.31;48.35;98914.66;2618835;54;20033;-64
2021/09/12 17:35:30;;;;;;;7.85;4.95;;;;;;;21.24;48.11;98920.28;2619029;54;20023;-65
2021/09/12 17:38:00;;;;;;;8.13;5.95;;;;;;;21.15;48.51;98924.50;2619053;54;20034;-66
2021/09/12 17:40:33;;;;;;;6.30;3.33;;;;;;;21.06;49.47;98923.34;2618191;54;20038;-64
2021/09/12 17:43:03;;;;;;;6.07;3.13;;;;;;;20.97;49.60;98927.59;2618741;54;20038;-66
2021/09/12 17:45:36;;;;;;;4.38;3.28;;;;;;;20.88;49.96;98921.06;2618475;39;20134;-65
2021/09/12 17:48:07;;;;;;;5.80;3.53;;;;;;;20.85;50.68;98925.06;2618655;54;20034;-66
2021/09/12 17:50:38;;;;;;;4.40;4.00;;;;;;;20.81;50.50;98921.28;2618416;47;20033;-64
2021/09/12 17:53:14;;;;;;;4.88;3.90;;;;;;;20.77;50.58;98929.03;2618422;54;20593;-64
2021/09/12 17:55:47;;;;;;;6.53;4.45;;;;;;;20.66;51.61;98924.66;2618078;47;20044;-64
2021/09/12 17:58:16;;;;;;;6.00;4.47;;;;;;;20.57;52.20;98920.00;2619212;54;20042;-65
2021/09/12 18:01:04;;;;;;;6.45;4.30;;;;;;;20.53;52.24;98917.00;2619513;54;20078;-65
2021/09/12 18:03:37;;;;;;;5.68;4.00;;;;;;;20.46;52.62;98922.56;2618608;54;20082;-64
2021/09/12 18:06:08;;;;;;;;;;;;;;;20.40;52.42;98923.56;2619586;54;20036;-65
2021/09/12 18:08:38;;;;;;;5.53;4.40;;;;;;;20.32;52.92;98929.41;2619063;47;19939;-65
2021/09/12 18:11:10;;;;;;;7.70;4.30;;;;;;;20.17;53.05;98929.25;2619200;54;20030;-65
2021/09/12 18:13:40;;;;;;;5.72;4.63;;;;;;;20.05;53.24;98929.38;2619434;54;20031;-65
2021/09/12 18:16:09;;;;;;;6.18;5.05;;;;;;;19.97;53.78;98935.19;2619164;54;20081;-65
2021/09/12 18:18:39;;;;;;;6.32;4.00;;;;;;;19.87;54.08;98937.75;2619718;54;20045;-65
2021/09/12 18:21:09;;;;;;;4.72;3.95;;;;;;;19.81;54.28;98944.13;2619342;47;20039;-64
2021/09/12 18:23:39;;;;;;;6.28;4.03;;;;;;;19.76;54.17;98942.19;2619239;54;20050;-65
2021/09/12 18:26:11;;;;;;;7.85;6.18;;;;;;;19.82;54.40;98943.84;2619756;54;20041;-65
2021/09/12 18:28:42;;;;;;;6.07;5.47;;;;;;;19.82;54.52;98948.41;2619256;47;20034;-63
2021/09/12 18:31:11;;;;;;;4.20;3.60;;;;;;;19.62;54.37;98948.97;2619884;46;20542;-64
2021/09/12 18:33:41;;;;;;;4.80;4.22;;;;;;;19.54;55.00;98955.53;2620008;39;20422;-66
2021/09/12 18:36:11;;;;;;;5.65;5.10;;;;;;;19.51;55.45;98959.53;2619123;54;20045;-65
2021/09/12 18:38:41;;;;;;;5.95;4.50;;;;;;;19.29;55.68;98969.38;2619234;39;20414;-66
2021/09/12 18:41:14;;;;;;;8.00;5.13;;;;;;;19.22;56.47;98966.84;2619027;54;20038;-65
2021/09/12 18:43:44;;;;;;;5.72;4.38;;;;;;;19.19;56.89;98975.41;2618855;54;20150;-65
2021/09/12 18:46:14;;;;;;;7.47;5.43;;;;;;;19.17;57.18;98976.69;2619661;54;20026;-64
2021/09/12 18:48:43;;;;;;;8.38;5.18;;;;;;;19.15;57.17;98974.25;2620165;54;20041;-64
2021/09/12 18:51:16;;;;;;;4.65;4.13;;;;;;;19.19;56.82;98977.28;2620282;54;20022;-64
2021/09/12 18:53:47;;;;;;;6.50;5.80;;;;;;;19.19;56.78;98977.28;2619784;54;20030;-64
2021/09/12 18:56:20;;;;;;;9.25;4.97;;;;;;;18.94;57.64;98989.19;2619693;54;20031;-65
2021/09/12 18:58:49;;;;;;;7.18;4.93;;;;;;;18.89;58.10;98988.28;2620352;54;20030;-64
2021/09/12 19:01:20;;;;;;;5.72;5.20;;;;;;;18.86;58.53;98986.91;2618141;54;20572;-64
2021/09/12 19:03:50;;;;;;;6.05;5.10;;;;;;;18.88;58.73;98989.34;2618261;54;20054;-63
2021/09/12 19:06:23;;;;;;;6.80;5.13;;;;;;;18.78;58.81;98998.03;2618685;54;20022;-65
2021/09/12 19:08:54;;;;;;;6.40;5.00;;;;;;;18.61;59.18;98994.44;2618110;47;20034;-65
2021/09/12 19:11:27;;;;;;;7.72;5.78;;;;;;;18.58;59.96;99001.13;2618022;47;20030;-64
2021/09/12 19:13:59;;;;;;;8.43;5.47;;;;;;;18.52;59.63;99005.53;2618173;54;20746;-64
2021/09/12 19:16:30;;;;;;;7.55;6.80;;;;;;;18.55;59.83;99002.41;2617885;47;20038;-64
2021/09/12 19:19:03;;;;;;;6.97;5.60;;;;;;;18.59;59.66;99009.94;2617862;54;20552;-64
2021/09/12 19:21:37;;;;;;;6.22;5.30;;;;;;;18.60;59.97;99008.91;2618308;54;20038;-65
2021/09/12 19:24:08;;;;;;;6.80;5.25;;;;;;;18.50;59.93;99018.38;2617471;54;20034;-65
2021/09/12 19:26:41;;;;;;;5.95;5.30;;;;;;;18.48;60.50;99022.31;2618444;54;20026;-65
2021/09/12 19:29:11;;;;;;;5.97;5.37;;;;;;;18.46;60.34;99019.91;2619164;39;20495;-64
2021/09/12 19:31:42;;;;;;;6.78;5.63;;;;;;;18.41;60.74;99018.97;2618565;54;20125;-64
2021/09/12 19:34:12;;;;;;;6.13;4.85;;;;;;;18.23;60.99;99023.44;2618187;54;20034;-64
2021/09/12 19:36:42;;;;;;;7.55;5.00;;;;;;;18.12;61.14;99020.78;2618691;54;20033;-64
2021/09/12 19:39:12;;;;;;;6.45;5.82;;;;;;;18.06;61.49;99027.91;2617964;54;20025;-65
2021/09/12 19:41:45;;;;;;;5.85;5.03;;;;;;;17.93;62.20;99030.84;2617920;47;20022;-65
2021/09/12 19:44:14;;;;;;;6.18;4.90;;;;;;;17.92;62.59;99032.72;2617617;47;20098;-65
2021/09/12 19:46:44;;;;;;;5.55;4.82;;;;;;;17.89;62.29;99035.03;2618822;54;20034;-65
2021/09/12 19:49:14;;;;;;;5.18;4.68;;;;;;;17.85;62.36;99036.56;2618444;54;20067;-65
2021/09/12 19:51:44;;;;;;;5.90;4.57;;;;;;;17.81;62.58;99036.19;2618769;54;20081;-65
2021/09/12 19:54:14;;;;;;;5.95;4.95;;;;;;;17.77;63.01;99027.03;2618408;39;20452;-65
2021/09/12 19:56:46;;;;;;;10.07;5.10;;;;;;;17.70;63.72;99032.44;2618690;54;20050;-64
2021/09/12 19:59:16;;;;;;;10.30;5.53;;;;;;;17.62;63.70;99026.63;2618190;39;20434;-64
2021/09/12 20:01:47;;;;;;;6.72;5.55;;;;;;;17.60;64.26;99036.78;2618432;39;20517;-65
2021/09/12 20:04:17;;;;;;;6.72;5.75;;;;;;;17.57;64.40;99036.16;2618187;54;20561;-67
2021/09/12 20:06:46;;;;;;;6.43;5.07;;;;;;;17.51;64.96;99026.44;2618397;54;20035;-65
2021/09/12 20:09:16;;;;;;;6.18;4.88;;;;;;;17.49;65.02;99025.00;2618945;39;20457;-65
2021/09/12 20:11:48;;;;;;;5.85;5.35;;;;;;;17.45;64.71;99030.00;2619389;54;20034;-65
2021/09/12 20:14:18;;;;;;;5.70;5.10;;;;;;;17.40;65.03;99027.22;2618639;54;20041;-66
2021/09/12 20:16:48;;;;;;;7.40;4.75;;;;;;;17.31;65.55;99034.78;2619124;54;20030;-64
2021/09/12 20:19:18;;;;;;;5.43;4.80;;;;;;;17.24;65.84;99031.38;2618364;54;20030;-65
2021/09/12 20:21:47;;;;;;;7.15;5.00;;;;;;;17.21;65.46;99042.53;2618150;54;20030;-65
2021/09/12 20:24:17;;;;;;;5.53;4.68;;;;;;;17.20;65.78;99035.56;2620739;31;20535;-64
2021/09/12 20:26:50;;;;;;;6.00;4.90;;;;;;;17.19;66.00;99041.16;2618315;47;20556;-65
2021/09/12 20:29:19;;;;;;;4.95;4.45;;;;;;;17.18;65.95;99045.66;2619140;54;20034;-65
2021/09/12 20:31:49;;;;;;;5.18;4.72;;;;;;;17.15;66.20;99046.13;2618683;47;20039;-64
2021/09/12 20:34:19;;;;;;;8.15;5.28;;;;;;;17.08;66.20;99045.41;2618549;54;20026;-65
2021/09/12 20:36:48;;;;;;;6.97;5.25;;;;;;;16.99;66.51;99047.59;2618298;54;20038;-65
2021/09/12 20:39:18;;;;;;;5.40;4.80;;;;;;;16.93;66.80;99048.50;2619064;39;20398;-66
2021/09/12 20:41:51;;;;;;;5.22;4.75;;;;;;;16.91;66.82;99058.59;2619040;54;20041;-65
2021/09/12 20:44:21;;;;;;;5.27;4.67;;;;;;;16.88;66.67;99059.03;2618144;54;20027;-66
2021/09/12 20:46:50;;;;;;;4.95;4.43;;;;;;;16.88;66.68;99061.72;2620397;54;20529;-65
2021/09/12 20:49:20;;;;;;;8.63;4.80;;;;;;;16.87;66.92;99062.75;2619522;54;20161;-65
2021/09/12 20:51:50;;;;;;;5.60;5.05;;;;;;;16.86;66.97;99066.47;2618680;54;20032;-66
2021/09/12 20:54:20;;;;;;;4.88;4.38;;;;;;;16.84;66.80;99053.34;2618866;54;20035;-64
2021/09/12 20:56:52;;;;;;;5.07;4.57;;;;;;;16.87;66.70;99052.09;2618476;47;20026;-66
2021/09/12 20:59:22;;;;;;;17.98;15.68;;;;;;;16.89;66.68;99057.19;2618855;54;20046;-66
2021/09/12 21:01:52;;;;;;;6.50;5.90;;;;;;;16.88;66.44;99059.03;2618867;54;20039;-64
2021/09/12 21:04:22;;;;;;;9.55;4.75;;;;;;;16.86;66.72;99054.97;2618885;46;20034;-65
2021/09/12 21:06:51;;;;;;;7.95;5.60;;;;;;;16.87;66.46;99061.94;2618683;39;20416;-65
2021/09/12 21:09:21;;;;;;;7.70;5.40;;;;;;;16.81;66.86;99059.13;2620020;54;20026;-65
2021/09/12 21:11:54;;;;;;;6.80;5.10;;;;;;;16.79;66.93;99061.22;2619935;54;20081;-66
2021/09/12 21:14:23;;;;;;;7.22;5.38;;;;;;;16.77;66.70;99062.47;2618672;39;20457;-65
2021/09/12 21:16:53;;;;;;;7.18;4.95;;;;;;;16.76;66.95;99061.66;2619120;54;20030;-65
2021/09/12 21:19:23;;;;;;;5.93;5.00;;;;;;;16.75;66.94;99062.72;2618781;54;20041;-64
2021/09/12 21:21:53;;;;;;;6.93;5.25;;;;;;;16.68;67.01;99059.28;2618176;47;20111;-64
2021/09/12 21:24:22;;;;;;;7.68;4.88;;;;;;;16.57;67.14;99062.69;2618732;39;20455;-65
2021/09/12 21:26:54;;;;;;;5.00;4.60;;;;;;;16.55;67.75;99070.13;2618206;54;20023;-65
2021/09/12 21:29:24;;;;;;;7.45;5.15;;;;;;;16.53;67.62;99067.69;2618999;54;20042;-65
2021/09/12 21:31:54;;;;;;;7.50;5.40;;;;;;;16.56;67.67;99064.56;2618967;39;20429;-65
2021/09/12 21:34:24;;;;;;;7.00;5.78;;;;;;;16.61;67.61;99069.22;2618891;39;20429;-65
2021/09/12 21:36:53;;;;;;;7.50;5.53;;;;;;;16.56;67.43;99066.41;2618784;54;20034;-65
2021/09/12 21:39:23;;;;;;;5.97;5.00;;;;;;;16.48;67.63;99072.88;2619470;54;20069;-65
2021/09/12 21:41:55;;;;;;;6.72;5.43;;;;;;;16.43;68.06;99067.41;2619237;54;20030;-65
2021/09/12 21:44:25;;;;;;;6.05;4.68;;;;;;;16.38;67.99;99063.78;2618448;47;20038;-64
2021/09/12 21:46:55;;;;;;;5.45;4.93;;;;;;;16.39;68.18;99071.56;2618821;54;20022;-65
2021/09/12 21:49:24;;;;;;;6.15;5.53;;;;;;;16.43;67.57;99071.94;2619650;39;20409;-64
2021/09/12 21:51:54;;;;;;;5.30;4.75;;;;;;;16.24;68.13;99074.59;2618999;54;20069;-66
2021/09/12 21:54:24;;;;;;;7.18;5.15;;;;;;;16.21;68.61;99071.59;2618472;54;20026;-66
2021/09/12 21:56:56;;;;;;;6.80;5.68;;;;;;;16.24;68.25;99073.78;2619130;54;20026;-65
2021/09/12 21:59:26;;;;;;;6.72;5.35;;;;;;;16.18;68.64;99070.16;2619212;54;20045;-65
2021/09/12 22:01:56;;;;;;;6.82;6.13;;;;;;;16.15;68.51;99075.13;2618902;54;20038;-65
2021/09/12 22:04:26;;;;;;;7.32;5.78;;;;;;;16.01;69.18;99077.13;2618320;54;20038;-65
2021/09/12 22:06:57;;;;;;;6.38;5.78;;;;;;;15.91;68.81;99072.28;2618829;54;20034;-64
2021/09/12 22:09:27;;;;;;;6.22;5.30;;;;;;;15.84;69.34;99066.22;2618498;54;20103;-65
2021/09/12 22:11:59;;;;;;;6.78;6.07;;;;;;;15.80;69.21;99076.50;2619246;39;20496;-65
2021/09/12 22:14:29;;;;;;;6.43;5.82;;;;;;;15.74;69.49;99072.03;2618329;54;20026;-65
2021/09/12 22:16:59;;;;;;;6.13;4.97;;;;;;;15.74;69.76;99073.88;2618733;54;20742;-65
2021/09/12 22:19:29;;;;;;;7.53;4.97;;;;;;;15.75;70.13;99075.50;2618736;54;20033;-65
2021/09/12 22:21:59;;;;;;;5.57;5.07;;;;;;;15.76;69.73;99071.84;2618870;54;20030;-65
2021/09/12 22:24:29;;;;;;;6.97;5.85;;;;;;;15.75;69.58;99073.66;2617831;47;20030;-65
2021/09/12 22:27:01;;;;;;;7.45;5.28;;;;;;;15.69;69.73;99071.06;2618454;54;20039;-64
2021/09/12 22:29:31;;;;;;;5.88;5.35;;;;;;;15.61;69.71;99077.47;2618151;54;20030;-64
2021/09/12 22:32:00;;;;;;;5.63;5.13;;;;;;;15.53;70.29;99081.22;2618971;54;20038;-65
2021/09/12 22:34:30;;;;;;;5.82;5.32;;;;;;;15.54;70.12;99076.69;2618421;54;20047;-64
2021/09/12 22:37:00;;;;;;;5.88;5.28;;;;;;;15.47;70.37;99071.44;2619032;54;20026;-64
2021/09/12 22:39:30;;;;;;;7.97;5.38;;;;;;;15.44;70.06;99077.19;2619495;54;20022;-65
2021/09/12 22:42:02;;;;;;;5.93;5.43;;;;;;;15.39;70.56;99082.38;2619214;54;20027;-65
2021/09/12 22:44:32;;;;;;;5.75;4.85;;;;;;;15.32;70.81;99084.25;2620395;54;20030;-64
2021/09/12 22:47:02;;;;;;;5.95;5.30;;;;;;;15.31;71.04;99098.63;2620903;47;20593;-65
2021/09/12 22:49:32;;;;;;;5.72;5.15;;;;;;;15.29;70.67;99096.16;2620742;54;20027;-64
2021/09/12 22:52:01;;;;;;;5.15;4.65;;;;;;;15.31;70.95;99102.09;2620813;54;20030;-64
2021/09/12 22:54:31;;;;;;;6.15;5.00;;;;;;;15.35;70.25;99102.47;2619693;47;20030;-65
2021/09/12 22:57:03;;;;;;;5.80;5.30;;;;;;;15.42;70.56;99108.53;2620898;54;20023;-65
2021/09/12 22:59:33;;;;;;;7.75;5.63;;;;;;;15.47;69.95;99103.41;2620455;54;20038;-65
2021/09/12 23:02:03;;;;;;;7.05;5.97;;;;;;;15.41;69.72;99098.13;2620220;54;20034;-65
2021/09/12 23:04:33;;;;;;;7.28;5.82;;;;;;;15.39;70.75;99113.47;2619089;54;20030;-65
2021/09/12 23:07:03;;;;;;;9.20;5.82;;;;;;;15.43;70.35;99104.03;2620371;54;20031;-64
2021/09/12 23:09:32;;;;;;;6.45;5.40;;;;;;;15.44;70.53;99105.69;2619549;54;20042;-66
2021/09/12 23:12:06;;;;;;;6.78;5.60;;;;;;;15.43;69.99;99099.53;2620441;54;20530;-66
2021/09/12 23:14:35;;;;;;;7.05;5.68;;;;;;;15.43;70.68;99094.22;2620071;54;20022;-64
2021/09/12 23:17:05;;;;;;;5.30;4.80;;;;;;;15.49;70.37;99087.19;2621016;52;20026;-64